Saginaw, Pennsylvania
Current Conditions -  °F | °C
As of 4:56 PM on Tuesday 25 Nov 2014 (Local Time) from KMDT Reporting Station
Broken Clouds Broken Clouds  
Wind Chill: 47°   Ceiling: 25000
Heat Index: 47°   Visibility: 10mi
Dew Point: 33°   Wind: 0mph
Humidity: 59%   Direction: NA
Pressure: 30.03"   Gusts: NA
Location:  40.0548°N, 76.6874°W
Report Text: KMDT 252156Z 00000KT 10SM FEW150 BKN250 08/01 A3003 RMK AO2 SLP172 T00830006
Loading
Personal Weather Stations






























Interactive Weather Map New forecast layout! Learn more

10-Day Weather Forecast

Advertisements
Track Severe Weather on mobile